Time;durP1;ratioP1;P1;durP2;ratioP2;P2;SDS_P1;SDS_P2;PMS_P1;PMS_P2;Temp;Humidity;BMP_temperature;BMP_pressure;BME280_temperature;BME280_humidity;BME280_pressure;Samples;Min_cycle;Max_cycle;Signal;HPM_P1;HPM_P2
2022/06/24 00:01:26;;;;;;;8.05;2.08;;;19.00;99.90;;;;;;5092996;28;20044;-68
2022/06/24 00:03:53;;;;;;;12.07;2.35;;;19.10;99.90;;;;;;5093033;28;20036;-68
2022/06/24 00:06:18;;;;;;;7.05;2.72;;;19.30;99.90;;;;;;5093083;28;20660;-69
2022/06/24 00:08:52;;;;;;;10.63;2.42;;;19.30;99.90;;;;;;5092965;28;20109;-68
2022/06/24 00:11:28;;;;;;;12.95;2.55;;;19.40;99.90;;;;;;5108578;28;20380;-68
2022/06/24 00:14:11;;;;;;;12.30;2.53;;;19.50;99.90;;;;;;5092804;28;20032;-68
2022/06/24 00:17:15;;;;;;;15.88;3.10;;;19.50;99.90;;;;;;5092921;28;20576;-68
2022/06/24 00:20:03;;;;;;;8.80;2.03;;;19.50;99.90;;;;;;5010365;28;20048;-68
2022/06/24 00:22:31;;;;;;;16.13;2.80;;;19.50;99.90;;;;;;5010477;28;20041;-68
2022/06/24 00:25:06;;;;;;;9.07;2.33;;;19.50;99.90;;;;;;5062118;28;20449;-69
2022/06/24 00:27:32;;;;;;;9.45;2.30;;;19.50;99.90;;;;;;5092588;28;20052;-69
2022/06/24 00:29:58;;;;;;;10.77;3.00;;;19.40;99.90;;;;;;5092758;28;20050;-68
2022/06/24 00:32:33;;;;;;;12.90;2.95;;;19.40;99.90;;;;;;5092721;28;20044;-69
2022/06/24 00:35:17;;;;;;;9.05;2.63;;;19.40;99.90;;;;;;5092698;28;20040;-69
2022/06/24 00:37:45;;;;;;;9.43;2.22;;;19.40;99.90;;;;;;5092476;28;20043;-69
2022/06/24 00:40:11;;;;;;;11.57;2.90;;;19.40;99.90;;;;;;5092587;28;20040;-69
2022/06/24 00:42:42;;;;;;;8.98;2.38;;;19.50;99.90;;;;;;5091849;28;20641;-69
2022/06/24 00:45:20;;;;;;;11.20;2.80;;;19.40;99.90;;;;;;5095852;28;20036;-68
2022/06/24 00:47:47;;;;;;;13.48;3.15;;;19.40;99.90;;;;;;5096676;28;20072;-68
2022/06/24 00:50:32;;;;;;;9.43;2.05;;;19.40;99.90;;;;;;5096358;28;20418;-68
2022/06/24 00:53:00;;;;;;;10.55;2.80;;;19.30;99.90;;;;;;5096200;28;20881;-68
2022/06/24 00:55:36;;;;;;;12.77;2.30;;;19.40;99.90;;;;;;5096234;28;20074;-69
2022/06/24 00:58:04;;;;;;;6.10;1.83;;;19.40;99.90;;;;;;5096378;28;20083;-68
2022/06/24 01:00:31;;;;;;;9.77;3.05;;;19.40;99.90;;;;;;5096103;28;20151;-69
2022/06/24 01:03:05;;;;;;;8.02;2.25;;;19.40;99.90;;;;;;5096054;28;20043;-68
2022/06/24 01:05:32;;;;;;;6.75;1.85;;;19.40;99.90;;;;;;5096223;28;20119;-69
2022/06/24 01:08:05;;;;;;;7.65;2.03;;;19.40;99.90;;;;;;5096203;28;20511;-69
2022/06/24 01:10:32;;;;;;;10.32;2.47;;;19.30;99.90;;;;;;5096305;28;20051;-68
2022/06/24 01:12:58;;;;;;;8.50;2.70;;;19.20;99.90;;;;;;5096161;28;20111;-68
2022/06/24 01:15:23;;;;;;;6.50;2.38;;;19.10;99.90;;;;;;5096035;28;20078;-69
2022/06/24 01:17:50;;;;;;;7.07;2.00;;;19.00;99.90;;;;;;5096158;28;20521;-69
2022/06/24 01:20:16;;;;;;;9.77;2.55;;;19.00;99.90;;;;;;5096069;28;20043;-69
2022/06/24 01:22:42;;;;;;;11.10;2.22;;;19.10;99.90;;;;;;5096076;28;20474;-68
2022/06/24 01:25:09;;;;;;;7.05;1.60;;;19.10;99.90;;;;;;5095910;28;20047;-68
2022/06/24 01:27:35;;;;;;;9.90;2.35;;;19.20;99.90;;;;;;5095753;28;20028;-68
2022/06/24 01:30:01;;;;;;;8.80;2.00;;;19.30;99.90;;;;;;5095675;28;20396;-68
2022/06/24 01:32:27;;;;;;;9.35;1.90;;;19.30;99.90;;;;;;5095919;28;20024;-68
2022/06/24 01:34:52;;;;;;;7.38;2.03;;;19.30;99.90;;;;;;5095786;28;20094;-69
2022/06/24 01:37:18;;;;;;;10.15;2.55;;;19.30;99.90;;;;;;5095104;28;20070;-69
2022/06/24 01:39:44;;;;;;;9.90;1.95;;;19.20;99.90;;;;;;5095612;28;20032;-68
2022/06/24 01:42:10;;;;;;;11.02;2.10;;;19.20;99.90;;;;;;5095582;28;20048;-69
2022/06/24 01:44:36;;;;;;;7.85;2.35;;;19.10;99.90;;;;;;5095642;28;20499;-68
2022/06/24 01:47:02;;;;;;;8.23;2.03;;;19.10;99.90;;;;;;5095378;28;20047;-69
2022/06/24 01:49:28;;;;;;;9.77;1.92;;;19.20;99.90;;;;;;5095271;28;20586;-69
2022/06/24 01:51:56;;;;;;;7.78;2.03;;;19.20;99.90;;;;;;5095358;28;20123;-69
2022/06/24 01:54:22;;;;;;;6.78;1.85;;;19.20;99.90;;;;;;5095517;28;20036;-68
2022/06/24 01:56:48;;;;;;;5.97;1.80;;;19.20;99.90;;;;;;5094231;28;20031;-69
2022/06/24 01:59:14;;;;;;;8.45;1.92;;;19.00;99.90;;;;;;5095218;28;20055;-69
2022/06/24 02:01:43;;;;;;;6.85;1.80;;;18.90;99.90;;;;;;5094991;28;20040;-68
2022/06/24 02:04:09;;;;;;;6.30;1.80;;;18.90;99.90;;;;;;5094943;28;20039;-68
2022/06/24 02:06:36;;;;;;;8.23;2.47;;;18.90;99.90;;;;;;5076875;28;20437;-68
2022/06/24 02:09:01;;;;;;;6.47;1.40;;;19.00;99.90;;;;;;5095335;28;20093;-68
2022/06/24 02:14:14;;;;;;;11.85;2.17;;;19.10;99.90;;;;;;5095058;28;20248;-68
2022/06/24 02:16:40;;;;;;;6.07;2.13;;;19.10;99.90;;;;;;5095087;28;20042;-69
2022/06/24 02:19:07;;;;;;;7.18;1.20;;;19.10;99.90;;;;;;5095029;28;20040;-68
2022/06/24 02:21:33;;;;;;;4.43;1.75;;;19.10;99.90;;;;;;5094503;28;20046;-68
2022/06/24 02:23:59;;;;;;;10.63;2.53;;;18.90;99.90;;;;;;5094362;28;20044;-68
2022/06/24 02:26:25;;;;;;;6.57;1.83;;;18.70;99.90;;;;;;5094699;28;20067;-68
2022/06/24 02:28:52;;;;;;;8.75;1.80;;;18.50;99.90;;;;;;5094726;28;20036;-68
2022/06/24 02:31:18;;;;;;;7.13;2.22;;;18.40;99.90;;;;;;5094691;28;20044;-68
2022/06/24 02:33:44;;;;;;;10.07;2.13;;;18.40;99.90;;;;;;5094654;28;20043;-68
2022/06/24 02:36:10;;;;;;;7.15;1.83;;;18.30;99.90;;;;;;5094604;28;20035;-68
2022/06/24 02:38:36;;;;;;;9.88;2.00;;;18.30;99.90;;;;;;5094481;28;20040;-68
2022/06/24 02:41:02;;;;;;;9.98;2.47;;;18.10;99.90;;;;;;5094433;28;20134;-69
2022/06/24 02:43:33;;;;;;;10.50;2.63;;;18.00;99.90;;;;;;5094542;28;20131;-69
2022/06/24 02:46:00;;;;;;;9.82;2.17;;;17.90;99.90;;;;;;5094350;28;20048;-68
2022/06/24 02:48:27;;;;;;;9.55;2.30;;;17.80;99.90;;;;;;5093886;28;20100;-68
2022/06/24 02:50:55;;;;;;;19.65;3.17;;;17.80;99.90;;;;;;5094245;28;20094;-68
2022/06/24 02:53:22;;;;;;;7.93;2.15;;;17.80;99.90;;;;;;5094084;28;20032;-68
2022/06/24 02:55:50;;;;;;;8.40;1.98;;;17.80;99.90;;;;;;5093688;28;20145;-68
2022/06/24 02:58:16;;;;;;;9.02;2.42;;;17.80;99.90;;;;;;5093139;28;20067;-68
2022/06/24 03:00:43;;;;;;;5.15;1.95;;;17.70;99.90;;;;;;5093573;28;20036;-68
2022/06/24 03:03:14;;;;;;;8.40;2.53;;;17.50;99.90;;;;;;5093107;28;20506;-68
2022/06/24 03:05:40;;;;;;;;;;;17.50;99.90;;;;;;5091933;28;20043;-68
2022/06/24 03:08:07;;;;;;;8.32;2.45;;;17.50;99.90;;;;;;5091235;28;19908;-68
2022/06/24 03:10:33;;;;;;;7.20;2.25;;;17.50;99.90;;;;;;5093085;28;20076;-68
2022/06/24 03:12:59;;;;;;;11.55;2.55;;;17.40;99.90;;;;;;5093700;28;20502;-68
2022/06/24 03:15:25;;;;;;;10.65;2.88;;;17.50;99.90;;;;;;5093616;28;20052;-68
2022/06/24 03:17:50;;;;;;;10.95;2.80;;;17.50;99.90;;;;;;5093530;28;20031;-68
2022/06/24 03:20:16;;;;;;;17.15;2.63;;;17.50;99.90;;;;;;5093513;28;20040;-68
2022/06/24 03:22:42;;;;;;;7.78;2.47;;;17.50;99.90;;;;;;5093461;28;20131;-68
2022/06/24 03:25:08;;;;;;;3.97;1.90;;;17.50;99.90;;;;;;5093536;28;20064;-68
2022/06/24 03:27:35;;;;;;;6.70;2.25;;;17.60;99.90;;;;;;5093639;28;20503;-68
2022/06/24 03:30:02;;;;;;;4.40;2.28;;;17.70;99.90;;;;;;5093526;28;20425;-68
2022/06/24 03:32:28;;;;;;;5.75;2.10;;;17.80;99.90;;;;;;5093425;28;20036;-68
2022/06/24 03:34:53;;;;;;;4.00;2.08;;;17.90;99.90;;;;;;5093243;28;20050;-68
2022/06/24 03:37:19;;;;;;;9.07;2.30;;;17.70;99.90;;;;;;5093178;28;20065;-68
2022/06/24 03:39:45;;;;;;;10.68;2.20;;;17.70;99.90;;;;;;5093225;28;20036;-68
2022/06/24 03:42:11;;;;;;;6.53;1.83;;;17.70;99.90;;;;;;5093192;28;20044;-68
2022/06/24 03:44:37;;;;;;;6.35;2.20;;;17.80;99.90;;;;;;5092751;28;20040;-68
2022/06/24 03:47:03;;;;;;;4.97;1.90;;;17.80;99.90;;;;;;5093255;28;20490;-68
2022/06/24 03:49:29;;;;;;;8.70;2.08;;;17.70;99.90;;;;;;5093092;28;20109;-68
2022/06/24 03:51:55;;;;;;;8.63;2.38;;;17.70;99.90;;;;;;5093170;28;20039;-68
2022/06/24 03:54:21;;;;;;;7.78;2.20;;;17.70;99.90;;;;;;5093194;28;20576;-68
2022/06/24 03:56:47;;;;;;;5.57;1.90;;;17.60;99.90;;;;;;5093169;28;20113;-68
2022/06/24 03:59:13;;;;;;;4.40;2.13;;;17.60;99.90;;;;;;5093255;28;20086;-68
2022/06/24 04:01:39;;;;;;;9.38;1.83;;;17.60;99.90;;;;;;5093217;28;20032;-68
2022/06/24 04:04:04;;;;;;;5.90;1.83;;;17.60;99.90;;;;;;5093193;28;20047;-68
2022/06/24 04:06:30;;;;;;;7.80;2.38;;;17.60;99.90;;;;;;5093220;28;20044;-69
2022/06/24 04:08:56;;;;;;;7.03;2.35;;;17.60;99.90;;;;;;5093081;28;20048;-68
2022/06/24 04:11:22;;;;;;;7.68;2.20;;;17.70;99.90;;;;;;5093137;28;20422;-68
2022/06/24 04:13:48;;;;;;;10.65;2.03;;;17.70;99.90;;;;;;5093187;28;20036;-68
2022/06/24 04:16:14;;;;;;;6.18;2.38;;;17.70;99.90;;;;;;5093078;28;20123;-68
2022/06/24 04:18:40;;;;;;;6.93;2.00;;;17.60;99.90;;;;;;5093764;28;20094;-68
2022/06/24 04:21:16;;;;;;;12.40;2.17;;;17.40;99.90;;;;;;5078761;28;20089;-68
2022/06/24 04:23:44;;;;;;;16.90;2.80;;;17.20;99.90;;;;;;5096947;28;20036;-68
2022/06/24 04:26:12;;;;;;;8.10;2.10;;;17.10;99.90;;;;;;5097113;28;20368;-68
2022/06/24 04:28:38;;;;;;;6.90;2.50;;;17.10;99.90;;;;;;5097098;28;20035;-68
2022/06/24 04:31:04;;;;;;;11.20;2.53;;;17.00;99.90;;;;;;5096849;28;20561;-68
2022/06/24 04:33:30;;;;;;;11.77;2.45;;;17.00;99.90;;;;;;5096962;28;20040;-68
2022/06/24 04:35:56;;;;;;;11.02;2.95;;;17.00;99.90;;;;;;5096776;28;20043;-68
2022/06/24 04:38:22;;;;;;;11.95;2.80;;;17.10;99.90;;;;;;5096570;28;20039;-68
2022/06/24 04:40:48;;;;;;;9.10;2.58;;;17.10;99.90;;;;;;5096788;28;20056;-68
2022/06/24 04:43:14;;;;;;;10.05;2.25;;;17.20;99.90;;;;;;5096837;28;20043;-69
2022/06/24 04:45:43;;;;;;;11.93;2.40;;;17.30;99.90;;;;;;5096720;28;20032;-68
2022/06/24 04:48:09;;;;;;;8.50;2.05;;;17.40;99.90;;;;;;5096646;28;20071;-68
2022/06/24 04:50:35;;;;;;;15.48;2.45;;;17.20;99.90;;;;;;5096643;28;20075;-68
2022/06/24 04:53:00;;;;;;;7.65;1.70;;;17.10;99.90;;;;;;5078438;28;20035;-68
2022/06/24 04:55:26;;;;;;;3.60;1.58;;;17.00;99.90;;;;;;5096642;28;20051;-68
2022/06/24 04:57:52;;;;;;;10.13;2.15;;;16.90;99.90;;;;;;5096168;28;20036;-68
2022/06/24 05:00:18;;;;;;;5.80;1.83;;;16.90;99.90;;;;;;5096087;28;20082;-68
2022/06/24 05:02:44;;;;;;;11.10;6.15;;;16.90;99.90;;;;;;5078951;28;20101;-68
2022/06/24 05:05:11;;;;;;;8.00;2.20;;;16.90;99.90;;;;;;5097708;28;20036;-68
2022/06/24 05:07:38;;;;;;;7.22;2.38;;;17.00;99.90;;;;;;5096438;28;20054;-68
2022/06/24 05:10:05;;;;;;;9.15;2.00;;;16.90;99.90;;;;;;5096196;28;20058;-68
2022/06/24 05:12:31;;;;;;;8.48;1.90;;;16.80;99.90;;;;;;5100608;28;20067;-68
2022/06/24 05:14:57;;;;;;;10.73;1.90;;;16.70;99.90;;;;;;5095953;28;20047;-68
2022/06/24 05:17:24;;;;;;;9.07;1.83;;;16.90;99.90;;;;;;5115169;28;20076;-68
2022/06/24 05:19:51;;;;;;;6.95;1.60;;;16.90;99.90;;;;;;5116252;28;20099;-68
2022/06/24 05:22:17;;;;;;;7.78;2.15;;;16.80;99.90;;;;;;5116489;28;20043;-68
2022/06/24 05:24:43;;;;;;;6.45;1.98;;;16.80;99.90;;;;;;5116363;28;20089;-68
2022/06/24 05:27:08;;;;;;;9.30;1.98;;;16.80;99.90;;;;;;5108790;28;20040;-67
2022/06/24 05:29:34;;;;;;;12.07;2.53;;;16.80;99.90;;;;;;5095357;28;20533;-68
2022/06/24 05:32:00;;;;;;;6.43;2.20;;;16.90;99.90;;;;;;5094280;28;20024;-68
2022/06/24 05:34:26;;;;;;;10.38;2.50;;;16.80;99.90;;;;;;5095101;28;20067;-67
2022/06/24 05:36:52;;;;;;;6.47;2.10;;;16.90;99.90;;;;;;5094665;28;20229;-68
2022/06/24 05:39:18;;;;;;;7.30;2.35;;;17.00;99.90;;;;;;5094985;28;20043;-67
2022/06/24 05:41:43;;;;;;;7.00;2.25;;;17.10;99.90;;;;;;5095643;28;20043;-68
2022/06/24 05:44:10;;;;;;;9.38;1.95;;;17.10;99.90;;;;;;5095603;28;20123;-67
2022/06/24 05:46:38;;;;;;;4.18;1.70;;;17.10;99.90;;;;;;5095335;28;20042;-67
2022/06/24 05:49:04;;;;;;;7.43;1.70;;;17.10;99.90;;;;;;5095246;28;20135;-67
2022/06/24 05:51:30;;;;;;;8.02;1.60;;;17.20;99.90;;;;;;5095024;28;20058;-67
2022/06/24 05:56:40;;;;;;;5.10;1.40;;;17.30;99.90;;;;;;5095354;28;20042;-67
2022/06/24 05:59:06;;;;;;;4.57;1.60;;;17.50;99.90;;;;;;5095312;28;20130;-67
2022/06/24 06:01:32;;;;;;;3.58;1.27;;;17.60;99.90;;;;;;5076829;28;20048;-67
2022/06/24 06:03:59;;;;;;;5.47;1.70;;;17.70;99.90;;;;;;5094942;28;20085;-68
2022/06/24 06:06:25;;;;;;;5.97;1.35;;;17.80;99.90;;;;;;5097211;28;20040;-68
2022/06/24 06:08:54;;;;;;;3.03;1.35;;;17.90;99.90;;;;;;5099061;28;20071;-68
2022/06/24 06:11:22;;;;;;;4.82;1.42;;;17.90;99.90;;;;;;5097790;28;20473;-67
2022/06/24 06:13:50;;;;;;;2.08;1.00;;;18.00;99.90;;;;;;5115379;28;20031;-68
2022/06/24 06:16:17;;;;;;;2.85;0.80;;;18.00;99.90;;;;;;5108866;28;20094;-68
2022/06/24 06:18:44;;;;;;;2.85;1.00;;;18.00;99.90;;;;;;5101483;28;20054;-68
2022/06/24 06:21:11;;;;;;;2.35;1.13;;;18.10;99.90;;;;;;5094878;28;20127;-68
2022/06/24 06:23:40;;;;;;;2.97;1.08;;;18.20;99.90;;;;;;5094598;28;20127;-68
2022/06/24 06:26:07;;;;;;;3.08;1.15;;;18.30;99.90;;;;;;5094787;28;20032;-68
2022/06/24 06:28:33;;;;;;;2.45;1.33;;;18.30;99.90;;;;;;5094860;28;20041;-68
2022/06/24 06:30:59;;;;;;;2.72;1.40;;;18.20;99.90;;;;;;5094750;28;20081;-68
2022/06/24 06:33:26;;;;;;;2.97;0.90;;;18.30;99.90;;;;;;5094606;28;20051;-68
2022/06/24 06:35:52;;;;;;;2.03;1.10;;;18.20;99.90;;;;;;5076234;28;20105;-68
2022/06/24 06:38:18;;;;;;;3.33;1.08;;;18.20;99.90;;;;;;5075883;28;20149;-68
2022/06/24 06:41:00;;;;;;;2.83;1.33;;;18.20;99.90;;;;;;5094086;28;20042;-68
2022/06/24 06:43:29;;;;;;;4.82;1.05;;;18.30;99.90;;;;;;5078416;28;20122;-68
2022/06/24 06:45:59;;;;;;;5.18;1.10;;;18.40;99.90;;;;;;5084412;28;20060;-67
2022/06/24 06:48:30;;;;;;;2.15;1.27;;;18.40;99.90;;;;;;5093918;28;20044;-68
2022/06/24 06:50:58;;;;;;;3.65;1.08;;;18.40;99.90;;;;;;5094317;28;20399;-68
2022/06/24 06:53:30;;;;;;;1.45;0.70;;;18.40;99.90;;;;;;5094283;28;20039;-68
2022/06/24 06:56:00;;;;;;;4.20;1.10;;;18.50;99.90;;;;;;5110011;28;20040;-67
2022/06/24 06:58:26;;;;;;;3.08;1.13;;;18.50;99.90;;;;;;5094360;28;20051;-68
2022/06/24 07:00:52;;;;;;;4.10;0.93;;;18.50;99.90;;;;;;5094006;28;20036;-69
2022/06/24 07:03:17;;;;;;;2.35;1.40;;;18.30;99.90;;;;;;5093208;28;20036;-69
2022/06/24 07:05:44;;;;;;;2.15;1.00;;;18.30;99.90;;;;;;5093869;28;20040;-68
2022/06/24 07:08:15;;;;;;;1.73;1.00;;;18.30;99.90;;;;;;5093427;28;20047;-68
2022/06/24 07:10:42;;;;;;;2.95;1.30;;;18.30;99.90;;;;;;5085743;28;20047;-68
2022/06/24 07:13:09;;;;;;;2.60;1.02;;;18.30;99.90;;;;;;5092673;28;20044;-68
2022/06/24 07:15:35;;;;;;;5.43;1.10;;;18.30;99.90;;;;;;5093846;28;20039;-68
2022/06/24 07:18:03;;;;;;;3.85;1.20;;;18.20;99.90;;;;;;5093718;28;20529;-68
2022/06/24 07:20:29;;;;;;;1.40;0.80;;;18.20;99.90;;;;;;5101957;28;20028;-68
2022/06/24 07:22:55;;;;;;;2.47;0.90;;;18.10;99.90;;;;;;5113634;28;20122;-67
2022/06/24 07:25:21;;;;;;;7.72;1.13;;;18.10;99.90;;;;;;5112391;28;20450;-67
2022/06/24 07:27:46;;;;;;;1.80;0.90;;;18.10;99.90;;;;;;5111956;28;20081;-68
2022/06/24 07:30:13;;;;;;;2.92;0.70;;;18.10;99.90;;;;;;5106649;28;20142;-67
2022/06/24 07:32:40;;;;;;;1.55;0.80;;;18.10;99.90;;;;;;5072862;28;20076;-67
2022/06/24 07:35:07;;;;;;;1.30;0.68;;;18.00;99.90;;;;;;5070755;28;20064;-67
2022/06/24 07:37:33;;;;;;;2.10;0.70;;;18.00;99.90;;;;;;5053496;28;20565;-67
2022/06/24 07:39:59;;;;;;;2.08;0.65;;;18.00;99.90;;;;;;5071299;28;20044;-67
2022/06/24 07:42:25;;;;;;;1.23;0.70;;;18.00;99.90;;;;;;5070890;28;20429;-68
2022/06/24 07:44:51;;;;;;;0.82;0.63;;;17.90;99.90;;;;;;5071141;28;20044;-67
2022/06/24 07:47:17;;;;;;;1.20;0.82;;;17.90;99.90;;;;;;5087447;28;20036;-67
2022/06/24 07:49:43;;;;;;;1.65;0.77;;;17.80;99.90;;;;;;5090963;28;20059;-67
2022/06/24 07:52:11;;;;;;;2.92;0.80;;;17.90;99.90;;;;;;5108105;28;20050;-68
2022/06/24 07:54:38;;;;;;;1.33;0.90;;;17.90;99.90;;;;;;5093180;28;20513;-67
2022/06/24 07:57:05;;;;;;;6.18;1.15;;;17.90;99.90;;;;;;5111839;28;20031;-67
2022/06/24 07:59:33;;;;;;;1.38;0.80;;;17.90;99.90;;;;;;5111769;28;20173;-68
2022/06/24 08:02:00;;;;;;;1.55;1.00;;;17.80;99.90;;;;;;5111558;28;20039;-67
2022/06/24 08:04:28;;;;;;;1.95;0.90;;;17.70;99.90;;;;;;5111089;28;20051;-67
2022/06/24 08:06:54;;;;;;;3.75;0.90;;;17.60;99.90;;;;;;5112275;28;20042;-67
2022/06/24 08:09:21;;;;;;;2.05;0.80;;;17.60;99.90;;;;;;5111703;28;20051;-67
2022/06/24 08:11:47;;;;;;;4.63;0.70;;;17.50;99.90;;;;;;5111147;28;20506;-67
2022/06/24 08:14:14;;;;;;;2.67;0.70;;;17.40;99.90;;;;;;5110994;28;20055;-67
2022/06/24 08:16:41;;;;;;;2.83;0.65;;;17.30;99.90;;;;;;5111516;28;20032;-66
2022/06/24 08:19:07;;;;;;;2.63;0.80;;;17.20;99.90;;;;;;5112902;28;20480;-67
2022/06/24 08:21:33;;;;;;;3.65;1.27;;;17.30;99.90;;;;;;5113123;28;20024;-67
2022/06/24 08:24:00;;;;;;;3.45;0.80;;;17.20;99.90;;;;;;5112021;28;20047;-67
2022/06/24 08:26:26;;;;;;;1.75;0.70;;;17.40;99.90;;;;;;5111050;28;20040;-67
2022/06/24 08:28:52;;;;;;;4.53;0.70;;;17.40;99.90;;;;;;5111089;28;20055;-67
2022/06/24 08:31:18;;;;;;;1.77;0.60;;;17.30;99.90;;;;;;5108635;28;20035;-67
2022/06/24 08:33:44;;;;;;;2.10;0.82;;;17.30;99.90;;;;;;5091955;28;20040;-67
2022/06/24 08:36:10;;;;;;;3.50;0.60;;;17.40;99.90;;;;;;5092727;28;20100;-67
2022/06/24 08:38:37;;;;;;;3.47;1.05;;;17.40;99.90;;;;;;5092170;28;20040;-67
2022/06/24 08:41:03;;;;;;;2.95;0.98;;;17.30;99.90;;;;;;5107870;28;20032;-67
2022/06/24 08:43:33;;;;;;;4.78;0.70;;;17.30;99.90;;;;;;5091408;28;20050;-67
2022/06/24 08:46:00;;;;;;;2.65;0.60;;;17.20;99.90;;;;;;5075114;28;20085;-67
2022/06/24 08:48:27;;;;;;;1.63;0.73;;;17.30;99.90;;;;;;5090527;28;20123;-67
2022/06/24 08:50:54;;;;;;;3.45;1.00;;;17.30;99.90;;;;;;5090903;28;20054;-65
2022/06/24 08:53:22;;;;;;;2.03;0.85;;;17.20;99.90;;;;;;5091113;28;20044;-66
2022/06/24 08:55:50;;;;;;;6.05;0.63;;;17.20;99.90;;;;;;5108454;28;20039;-66
2022/06/24 08:58:17;;;;;;;4.85;1.02;;;17.10;99.90;;;;;;5112598;28;20051;-66
2022/06/24 09:00:43;;;;;;;2.67;0.90;;;17.00;99.90;;;;;;5112557;28;20036;-66
2022/06/24 09:03:10;;;;;;;3.78;0.70;;;16.80;99.90;;;;;;5107080;28;20048;-67
2022/06/24 09:05:40;;;;;;;13.55;8.88;;;16.60;99.90;;;;;;5099907;28;20640;-66
2022/06/24 09:08:08;;;;;;;4.03;2.22;;;16.70;99.90;;;;;;5093114;28;20044;-66
2022/06/24 09:10:38;;;;;;;2.70;0.77;;;16.70;99.90;;;;;;5093971;28;20048;-66
2022/06/24 09:13:05;;;;;;;1.10;0.60;;;16.70;99.90;;;;;;5075235;28;20131;-66
2022/06/24 09:15:32;;;;;;;2.88;1.05;;;16.60;99.90;;;;;;5093764;28;20119;-66
2022/06/24 09:17:59;;;;;;;3.90;0.80;;;16.60;99.90;;;;;;5093837;28;20047;-66
2022/06/24 09:20:30;;;;;;;2.55;0.80;;;16.60;99.90;;;;;;5092826;28;20369;-66
2022/06/24 09:23:07;;;;;;;3.15;1.00;;;16.60;99.90;;;;;;5093264;28;20061;-66
2022/06/24 09:25:48;;;;;;;2.47;0.93;;;16.60;99.90;;;;;;5095272;28;20117;-66
2022/06/24 09:28:24;;;;;;;4.78;0.98;;;16.60;99.90;;;;;;5095351;28;20496;-66
2022/06/24 09:30:59;;;;;;;2.65;1.00;;;16.50;99.90;;;;;;5090243;28;20048;-66
2022/06/24 09:33:25;;;;;;;1.40;0.80;;;16.30;99.90;;;;;;5087780;28;20046;-66
2022/06/24 09:36:11;;;;;;;1.65;0.80;;;16.20;99.90;;;;;;5092547;28;20043;-66
2022/06/24 09:39:03;;;;;;;1.90;0.85;;;16.10;99.90;;;;;;5091182;28;20067;-66
2022/06/24 09:41:30;;;;;;;2.97;1.00;;;15.90;99.90;;;;;;5092555;28;20107;-66
2022/06/24 09:44:01;;;;;;;4.18;0.73;;;15.90;99.90;;;;;;5093206;28;20070;-66
2022/06/24 09:46:27;;;;;;;3.83;1.00;;;15.80;99.90;;;;;;5107918;28;20399;-66
2022/06/24 09:49:02;;;;;;;3.45;0.60;;;15.90;99.90;;;;;;5093682;28;20052;-66
2022/06/24 09:51:29;;;;;;;2.53;1.05;;;16.10;99.90;;;;;;5093242;28;20113;-66
2022/06/24 09:53:55;;;;;;;3.85;0.85;;;16.30;99.90;;;;;;5093123;28;20534;-67
2022/06/24 09:56:22;;;;;;;3.45;1.10;;;16.40;99.90;;;;;;5091487;28;20051;-66
2022/06/24 10:01:37;;;;;;;3.22;1.05;;;16.70;99.90;;;;;;5092700;28;20043;-66
2022/06/24 10:04:15;;;;;;;2.25;0.90;;;17.20;99.90;;;;;;5074995;28;20048;-66
2022/06/24 10:06:47;;;;;;;4.18;1.00;;;17.90;99.90;;;;;;5092162;28;20044;-66
2022/06/24 10:09:14;;;;;;;2.05;0.63;;;18.30;99.90;;;;;;5092326;28;20059;-66
2022/06/24 10:11:45;;;;;;;1.98;1.15;;;18.10;99.90;;;;;;5092592;28;20487;-67
2022/06/24 10:14:12;;;;;;;2.88;0.95;;;18.70;99.90;;;;;;5092337;28;20578;-67
2022/06/24 10:16:43;;;;;;;1.20;0.82;;;18.60;99.90;;;;;;5091684;28;20415;-66
2022/06/24 10:19:12;;;;;;;3.00;0.80;;;18.70;99.90;;;;;;5092338;28;20518;-67
2022/06/24 10:21:39;;;;;;;2.67;0.98;;;19.20;99.90;;;;;;5091394;28;20032;-67
2022/06/24 10:24:13;;;;;;;3.53;0.65;;;18.70;99.90;;;;;;5092131;28;20048;-68
2022/06/24 10:26:41;;;;;;;4.15;1.00;;;18.30;99.90;;;;;;5094806;28;20055;-69
2022/06/24 10:29:07;;;;;;;1.95;0.73;;;18.50;99.90;;;;;;5073252;28;20044;-67
2022/06/24 10:31:54;;;;;;;1.10;0.60;;;18.70;99.90;;;;;;5092414;28;20052;-67
2022/06/24 10:34:22;;;;;;;1.20;0.63;;;18.80;99.90;;;;;;5093105;28;20438;-67
2022/06/24 10:36:52;;;;;;;2.47;0.65;;;18.90;99.90;;;;;;5091587;28;20046;-67
2022/06/24 10:39:23;;;;;;;5.73;0.60;;;18.80;99.90;;;;;;5091546;28;20072;-67
2022/06/24 10:42:00;;;;;;;2.08;0.80;;;18.70;99.90;;;;;;5092091;28;20047;-67
2022/06/24 10:44:30;;;;;;;2.83;0.80;;;18.50;99.90;;;;;;5091907;28;20051;-67
2022/06/24 10:47:05;;;;;;;;;;;18.40;99.90;;;;;;5105286;28;20046;-68
2022/06/24 10:50:12;;;;;;;1.63;0.70;;;18.50;99.90;;;;;;5071633;28;19917;-67
2022/06/24 10:52:47;;;;;;;3.95;0.55;;;18.50;99.90;;;;;;5071205;28;20032;-68
2022/06/24 10:55:23;;;;;;;0.85;0.40;;;18.50;99.90;;;;;;5070830;28;20546;-70
2022/06/24 10:57:55;;;;;;;3.05;0.70;;;18.50;99.90;;;;;;5070417;28;20045;-68
2022/06/24 11:00:41;;;;;;;1.23;0.63;;;18.60;99.90;;;;;;5070576;28;20043;-68
2022/06/24 11:03:07;;;;;;;2.10;0.70;;;18.60;99.90;;;;;;5069392;28;20040;-68
2022/06/24 11:05:41;;;;;;;1.80;0.65;;;18.70;99.90;;;;;;5053130;28;20067;-67
2022/06/24 11:08:14;;;;;;;0.70;0.50;;;18.70;99.90;;;;;;5071314;28;20157;-69
2022/06/24 11:10:44;;;;;;;1.48;0.50;;;18.70;99.90;;;;;;5091746;28;20147;-66
2022/06/24 11:13:11;;;;;;;1.65;0.30;;;18.80;99.90;;;;;;5056474;28;20032;-68
2022/06/24 11:15:46;;;;;;;1.63;1.00;;;18.90;99.90;;;;;;5090124;28;20081;-68
2022/06/24 11:18:29;;;;;;;3.53;0.75;;;19.20;99.90;;;;;;5090442;28;20036;-68
2022/06/24 11:21:01;;;;;;;1.15;0.80;;;19.40;99.90;;;;;;5090786;28;20032;-69
2022/06/24 11:23:39;;;;;;;3.88;0.47;;;19.60;99.90;;;;;;5091130;28;20043;-68
2022/06/24 11:26:06;;;;;;;1.35;0.50;;;19.40;99.90;;;;;;5091944;28;20612;-67
2022/06/24 11:28:34;;;;;;;1.75;0.50;;;19.50;99.90;;;;;;5092863;28;20130;-67
2022/06/24 11:31:21;;;;;;;1.70;0.93;;;19.50;99.90;;;;;;5093015;28;20126;-67
2022/06/24 11:34:08;;;;;;;1.77;0.50;;;19.30;99.90;;;;;;5079038;28;20484;-69
2022/06/24 11:36:36;;;;;;;0.70;0.43;;;19.00;99.90;;;;;;5053989;28;20048;-67
2022/06/24 11:39:05;;;;;;;2.22;0.60;;;18.90;99.90;;;;;;5071887;28;20044;-67
2022/06/24 11:41:32;;;;;;;1.00;0.60;;;19.00;99.90;;;;;;5053673;28;20033;-67
2022/06/24 11:43:58;;;;;;;1.20;0.70;;;19.00;99.90;;;;;;5080823;28;20043;-68
2022/06/24 11:46:25;;;;;;;5.45;0.80;;;19.00;99.90;;;;;;5091439;28;20505;-67
2022/06/24 11:49:13;;;;;;;1.00;0.60;;;19.00;99.90;;;;;;5072723;28;20153;-70
2022/06/24 11:51:41;;;;;;;2.28;0.85;;;18.80;99.90;;;;;;5090700;28;20044;-70
2022/06/24 11:54:08;;;;;;;1.63;0.70;;;18.70;99.90;;;;;;5072630;28;20415;-70
2022/06/24 11:56:39;;;;;;;3.47;1.02;;;18.80;99.90;;;;;;5091171;28;20048;-68
2022/06/24 11:59:07;;;;;;;2.70;0.93;;;19.10;99.90;;;;;;5091429;28;20051;-71
2022/06/24 12:01:33;;;;;;;10.90;1.40;;;19.00;99.90;;;;;;5091565;28;20040;-69
2022/06/24 12:04:01;;;;;;;2.10;1.00;;;19.10;99.90;;;;;;5090830;28;20166;-69
2022/06/24 12:06:29;;;;;;;4.47;1.10;;;19.20;99.90;;;;;;5090566;28;20519;-70
2022/06/24 12:08:56;;;;;;;3.72;1.02;;;19.40;99.90;;;;;;5091661;28;20536;-68
2022/06/24 12:11:23;;;;;;;4.47;0.95;;;19.50;99.90;;;;;;5090353;28;20050;-68
2022/06/24 12:14:02;;;;;;;1.83;0.70;;;19.40;99.90;;;;;;5090348;28;20051;-68
2022/06/24 12:16:48;;;;;;;1.17;0.77;;;19.80;99.90;;;;;;5091316;28;20050;-68
2022/06/24 12:19:15;;;;;;;3.88;0.70;;;19.70;99.90;;;;;;5092138;28;20044;-68
2022/06/24 12:21:41;;;;;;;2.53;0.60;;;19.80;99.90;;;;;;5073043;28;20078;-69
2022/06/24 12:24:23;;;;;;;5.80;1.35;;;20.20;99.90;;;;;;5090499;28;20075;-68
2022/06/24 12:26:56;;;;;;;1.17;1.00;;;20.40;99.90;;;;;;5090875;28;20170;-68
2022/06/24 12:29:27;;;;;;;3.30;1.05;;;19.80;99.90;;;;;;5091031;28;20138;-67
2022/06/24 12:31:54;;;;;;;4.03;0.60;;;19.70;99.90;;;;;;5090801;28;20051;-68
2022/06/24 12:34:27;;;;;;;1.63;0.60;;;19.80;99.90;;;;;;5089980;28;20040;-67
2022/06/24 12:36:58;;;;;;;1.52;0.70;;;19.90;99.90;;;;;;5072829;28;20042;-67
2022/06/24 12:39:29;;;;;;;1.15;0.70;;;20.00;99.90;;;;;;5091137;28;20185;-67
2022/06/24 12:41:55;;;;;;;2.45;0.93;;;20.20;99.90;;;;;;5076649;28;20044;-67
2022/06/24 12:44:22;;;;;;;3.40;0.85;;;20.20;99.90;;;;;;5094455;28;20130;-67
2022/06/24 12:52:33;;;;;;;1.92;1.25;;;19.50;99.90;;;;;;5095013;28;20043;-68
2022/06/24 12:55:00;;;;;;;3.25;1.23;;;19.80;99.90;;;;;;5074661;28;20406;-69
2022/06/24 12:57:26;;;;;;;5.00;1.55;;;19.70;99.90;;;;;;5093060;28;20176;-69
2022/06/24 12:59:52;;;;;;;8.18;1.90;;;19.80;99.90;;;;;;5094466;28;20525;-68
2022/06/24 13:02:18;;;;;;;2.97;1.08;;;19.50;99.90;;;;;;5076192;28;20032;-68
2022/06/24 13:04:44;;;;;;;3.97;1.08;;;19.20;99.90;;;;;;5093582;28;20035;-68
2022/06/24 13:07:09;;;;;;;3.42;1.02;;;19.10;99.90;;;;;;5094525;28;20036;-68